曼谷, 泰國

2016年8月29日 03時34分 (GMT +0700)
Soi Ekkarat 15/2 | | Change Station

海拔 19 ft 13.96 °N, 100.60 °E | Updated 3 minutes ago

Partly Cloudy
局部有雲
84.0 °F
感覺像 96 °F
1.2
風 變化 風 來自 西南
Gusts 2.5 英里每小時

今日
高 -- | 低 -- °F
--% 降水機率
昨天
高 -- | 低 -- °F
Precip. -- 英寸
氣壓 29.74 英寸
能見度 6.2 英里
多雲 少數 2000 ft
高溫指數 96 °F
露點 79 °F
濕度 85%
降雨量 0.00 英寸
積雪深度 不適用。
6:05 AM 6:30 PM
殘月, 13% visible
METAR VTBD 282000Z 26005KT 230V290 9999 FEW020 27/25 Q1007 NOSIG
氣壓 29.74 英寸
能見度 6.2 英里
多雲 少數 2000 ft
高溫指數 96 °F
露點 79 °F
濕度 85%
降雨量 0.00 英寸
積雪深度 不適用。
6:05 AM 6:30 PM
殘月, 13% visible
METAR VTBD 282000Z 26005KT 230V290 9999 FEW020 27/25 Q1007 NOSIG

10-Day Weather Forecast

No radar image for this location.
×

Almanac

天文

Aug. 29, 2016 昇起 降落
實際時間
民用曙暮光
航海曙暮光
天文學微明
月亮
可見光的長度
白晝時間
Tomorrow will be .
, % of the Moon is Illuminated

今天之最

國家高溫 國家低溫

Community

WunderPhotos

Upload Photos

1,935,691 照片已上傳!

WunderBlog® & News

Nearby

空氣質素

  空氣質素 空氣質素指數 污染物
Not available.

積雪量

Station 深度 海拔

地震活動

城市 距離 時間和日期
顯示的最小幅度是2.5。

沿海水溫

地點 溫度

Stations

附近的氣象站

氣象站位置 溫度 風寒指數 露點 濕度 Precip. 海拔 最近更新時間 類型